sensor_id;sensor_type;location;lat;lon;timestamp;pressure;altitude;pressure_sealevel;temperature;humidity
55317;BME280;41178;48.956;8.130;2023-07-29T00:03:10;99250.41;;;21.28;54.01
55317;BME280;41178;48.956;8.130;2023-07-29T00:08:12;99267.00;;;20.58;55.15
55317;BME280;41178;48.956;8.130;2023-07-29T00:13:14;99218.25;;;22.53;51.26
55317;BME280;41178;48.956;8.130;2023-07-29T00:18:16;99261.09;;;21.55;53.38
55317;BME280;41178;48.956;8.130;2023-07-29T00:23:17;99218.88;;;22.95;50.28
55317;BME280;41178;48.956;8.130;2023-07-29T00:28:23;99244.19;;;22.41;51.27
55317;BME280;41178;48.956;8.130;2023-07-29T00:33:24;99267.41;;;22.07;51.73
55317;BME280;41178;48.956;8.130;2023-07-29T00:38:26;99257.56;;;22.06;51.95
55317;BME280;41178;48.956;8.130;2023-07-29T00:43:28;99237.03;;;21.06;54.14
55317;BME280;41178;48.956;8.130;2023-07-29T00:48:29;99199.22;;;22.33;51.73
55317;BME280;41178;48.956;8.130;2023-07-29T00:53:32;99263.34;;;20.90;53.96
55317;BME280;41178;48.956;8.130;2023-07-29T00:58:34;99168.66;;;22.41;51.75
55317;BME280;41178;48.956;8.130;2023-07-29T01:03:35;99237.97;;;21.37;52.91
55317;BME280;41178;48.956;8.130;2023-07-29T01:08:47;99175.25;;;20.96;54.07
55317;BME280;41178;48.956;8.130;2023-07-29T01:24:39;99164.72;;;20.37;55.65
55317;BME280;41178;48.956;8.130;2023-07-29T01:29:41;99150.38;;;20.52;55.10
55317;BME280;41178;48.956;8.130;2023-07-29T01:34:50;99171.06;;;20.10;56.32
55317;BME280;41178;48.956;8.130;2023-07-29T01:39:57;99149.56;;;20.56;54.79
55317;BME280;41178;48.956;8.130;2023-07-29T01:45:00;99146.81;;;20.46;55.44
55317;BME280;41178;48.956;8.130;2023-07-29T01:50:02;99136.91;;;20.88;54.96
55317;BME280;41178;48.956;8.130;2023-07-29T01:55:05;99194.38;;;20.48;54.72
55317;BME280;41178;48.956;8.130;2023-07-29T02:00:07;99182.75;;;20.58;55.42
55317;BME280;41178;48.956;8.130;2023-07-29T02:05:09;99198.06;;;20.80;54.40
55317;BME280;41178;48.956;8.130;2023-07-29T02:10:11;99168.78;;;21.08;54.54
55317;BME280;41178;48.956;8.130;2023-07-29T02:15:13;99137.78;;;21.34;54.14
55317;BME280;41178;48.956;8.130;2023-07-29T02:20:15;99152.44;;;20.92;55.47
55317;BME280;41178;48.956;8.130;2023-07-29T02:25:16;99111.88;;;21.93;53.36
55317;BME280;41178;48.956;8.130;2023-07-29T02:30:18;99160.09;;;21.21;54.55
55317;BME280;41178;48.956;8.130;2023-07-29T02:35:20;99160.63;;;21.33;54.18
55317;BME280;41178;48.956;8.130;2023-07-29T02:40:22;99149.72;;;20.97;55.26
55317;BME280;41178;48.956;8.130;2023-07-29T02:45:24;99163.63;;;20.43;56.76
55317;BME280;41178;48.956;8.130;2023-07-29T02:50:26;99100.44;;;21.81;54.13
55317;BME280;41178;48.956;8.130;2023-07-29T02:55:28;99101.84;;;21.32;55.45
55317;BME280;41178;48.956;8.130;2023-07-29T03:00:31;99115.44;;;21.01;55.34
55317;BME280;41178;48.956;8.130;2023-07-29T03:05:33;99099.13;;;21.22;54.78
55317;BME280;41178;48.956;8.130;2023-07-29T03:10:35;99080.91;;;22.44;51.50
55317;BME280;41178;48.956;8.130;2023-07-29T03:15:37;99107.84;;;21.34;54.12
55317;BME280;41178;48.956;8.130;2023-07-29T03:20:40;99120.63;;;21.03;54.95
55317;BME280;41178;48.956;8.130;2023-07-29T03:25:41;99111.91;;;20.96;54.90
55317;BME280;41178;48.956;8.130;2023-07-29T03:30:43;99093.44;;;21.44;53.93
55317;BME280;41178;48.956;8.130;2023-07-29T03:35:45;99143.38;;;20.13;56.84
55317;BME280;41178;48.956;8.130;2023-07-29T03:40:47;99143.44;;;19.43;59.04
55317;BME280;41178;48.956;8.130;2023-07-29T03:45:48;99156.75;;;19.45;59.53
55317;BME280;41178;48.956;8.130;2023-07-29T03:50:50;99096.66;;;19.26;60.55
55317;BME280;41178;48.956;8.130;2023-07-29T03:55:52;99082.84;;;19.65;59.90
55317;BME280;41178;48.956;8.130;2023-07-29T04:00:54;99120.94;;;20.28;57.82
55317;BME280;41178;48.956;8.130;2023-07-29T04:05:55;99129.19;;;20.01;58.58
55317;BME280;41178;48.956;8.130;2023-07-29T04:10:57;99131.06;;;19.95;58.75
55317;BME280;41178;48.956;8.130;2023-07-29T04:15:59;99084.66;;;20.60;57.66
55317;BME280;41178;48.956;8.130;2023-07-29T04:21:01;99088.97;;;20.61;57.48
55317;BME280;41178;48.956;8.130;2023-07-29T04:26:03;99108.81;;;20.66;56.97
55317;BME280;41178;48.956;8.130;2023-07-29T04:31:05;99138.72;;;19.61;59.80
55317;BME280;41178;48.956;8.130;2023-07-29T04:36:06;99118.22;;;19.80;59.24
55317;BME280;41178;48.956;8.130;2023-07-29T04:41:08;99081.09;;;20.59;58.05
55317;BME280;41178;48.956;8.130;2023-07-29T04:46:10;99067.59;;;21.47;55.74
55317;BME280;41178;48.956;8.130;2023-07-29T04:51:12;99118.31;;;20.54;57.49
55317;BME280;41178;48.956;8.130;2023-07-29T04:56:14;99132.44;;;20.56;57.92
55317;BME280;41178;48.956;8.130;2023-07-29T05:01:18;99129.66;;;20.30;58.23
55317;BME280;41178;48.956;8.130;2023-07-29T05:06:20;99150.81;;;20.23;58.32
55317;BME280;41178;48.956;8.130;2023-07-29T05:11:22;99131.75;;;20.86;57.24
55317;BME280;41178;48.956;8.130;2023-07-29T05:16:24;99144.53;;;20.85;56.90
55317;BME280;41178;48.956;8.130;2023-07-29T05:21:25;99110.22;;;20.74;58.17
55317;BME280;41178;48.956;8.130;2023-07-29T05:26:27;99166.25;;;20.17;58.63
55317;BME280;41178;48.956;8.130;2023-07-29T05:31:29;99120.34;;;20.99;57.20
55317;BME280;41178;48.956;8.130;2023-07-29T05:36:31;99147.94;;;20.55;58.65
55317;BME280;41178;48.956;8.130;2023-07-29T05:41:33;99137.09;;;20.65;59.13
55317;BME280;41178;48.956;8.130;2023-07-29T05:46:34;99155.84;;;20.09;60.00
55317;BME280;41178;48.956;8.130;2023-07-29T05:51:36;99148.56;;;20.15;59.83
55317;BME280;41178;48.956;8.130;2023-07-29T05:56:38;99192.78;;;19.67;60.85
55317;BME280;41178;48.956;8.130;2023-07-29T06:01:40;99167.84;;;20.13;59.48
55317;BME280;41178;48.956;8.130;2023-07-29T06:06:41;99182.00;;;19.78;60.49
55317;BME280;41178;48.956;8.130;2023-07-29T06:11:43;99175.63;;;20.47;58.85
55317;BME280;41178;48.956;8.130;2023-07-29T06:16:45;99206.19;;;20.17;59.58
55317;BME280;41178;48.956;8.130;2023-07-29T06:21:48;99175.25;;;20.86;58.42
55317;BME280;41178;48.956;8.130;2023-07-29T06:26:49;99231.53;;;20.38;58.91
55317;BME280;41178;48.956;8.130;2023-07-29T06:31:51;99249.66;;;19.84;60.12
55317;BME280;41178;48.956;8.130;2023-07-29T06:36:53;99206.13;;;20.59;58.65
55317;BME280;41178;48.956;8.130;2023-07-29T06:41:54;99233.50;;;20.05;59.93
55317;BME280;41178;48.956;8.130;2023-07-29T06:46:57;99241.88;;;19.66;60.43
55317;BME280;41178;48.956;8.130;2023-07-29T06:51:59;99229.75;;;20.11;59.53
55317;BME280;41178;48.956;8.130;2023-07-29T06:57:01;99199.03;;;20.53;58.94
55317;BME280;41178;48.956;8.130;2023-07-29T07:02:03;99235.09;;;20.38;58.80
55317;BME280;41178;48.956;8.130;2023-07-29T07:07:05;99239.88;;;20.21;59.86
55317;BME280;41178;48.956;8.130;2023-07-29T07:12:07;99184.56;;;21.31;58.03
55317;BME280;41178;48.956;8.130;2023-07-29T07:17:09;99246.38;;;20.67;59.01
55317;BME280;41178;48.956;8.130;2023-07-29T07:22:14;99203.09;;;21.34;58.24
55317;BME280;41178;48.956;8.130;2023-07-29T07:27:15;99215.88;;;21.44;58.25
55317;BME280;41178;48.956;8.130;2023-07-29T07:32:17;99189.13;;;22.33;56.60
55317;BME280;41178;48.956;8.130;2023-07-29T07:37:19;99210.34;;;22.62;56.56
55317;BME280;41178;48.956;8.130;2023-07-29T07:42:20;99237.13;;;21.42;58.49
55317;BME280;41178;48.956;8.130;2023-07-29T07:47:22;99227.78;;;22.61;56.15
55317;BME280;41178;48.956;8.130;2023-07-29T07:52:24;99269.00;;;21.88;57.10
55317;BME280;41178;48.956;8.130;2023-07-29T07:57:26;99248.78;;;22.45;56.29
55317;BME280;41178;48.956;8.130;2023-07-29T08:02:27;99295.59;;;21.34;58.21
55317;BME280;41178;48.956;8.130;2023-07-29T08:07:29;99234.72;;;22.02;56.93
55317;BME280;41178;48.956;8.130;2023-07-29T08:12:31;99230.59;;;22.25;56.45
55317;BME280;41178;48.956;8.130;2023-07-29T08:17:33;99249.22;;;22.83;54.43
55317;BME280;41178;48.956;8.130;2023-07-29T08:22:34;99254.25;;;22.40;55.79
55317;BME280;41178;48.956;8.130;2023-07-29T08:27:36;99274.47;;;21.98;56.11
55317;BME280;41178;48.956;8.130;2023-07-29T08:32:38;99277.59;;;22.82;55.15
55317;BME280;41178;48.956;8.130;2023-07-29T08:37:40;99292.97;;;21.60;57.66
55317;BME280;41178;48.956;8.130;2023-07-29T08:42:45;99271.59;;;21.11;59.61
55317;BME280;41178;48.956;8.130;2023-07-29T08:47:48;99254.56;;;21.87;57.70
55317;BME280;41178;48.956;8.130;2023-07-29T08:52:52;99244.97;;;22.41;56.93
55317;BME280;41178;48.956;8.130;2023-07-29T08:57:54;99267.94;;;21.94;58.19
55317;BME280;41178;48.956;8.130;2023-07-29T09:02:56;99245.06;;;21.90;58.98
55317;BME280;41178;48.956;8.130;2023-07-29T09:08:04;99258.66;;;22.15;57.50
55317;BME280;41178;48.956;8.130;2023-07-29T09:13:07;99228.16;;;23.44;55.59
55317;BME280;41178;48.956;8.130;2023-07-29T09:18:15;99257.97;;;22.80;55.55
55317;BME280;41178;48.956;8.130;2023-07-29T09:23:17;99281.53;;;22.25;57.02
55317;BME280;41178;48.956;8.130;2023-07-29T09:28:19;99285.91;;;22.26;56.55
55317;BME280;41178;48.956;8.130;2023-07-29T09:33:21;99264.31;;;22.50;55.69
55317;BME280;41178;48.956;8.130;2023-07-29T09:38:27;99250.22;;;22.12;56.17
55317;BME280;41178;48.956;8.130;2023-07-29T09:43:30;99255.47;;;22.89;54.78
55317;BME280;41178;48.956;8.130;2023-07-29T09:48:37;99269.00;;;22.29;55.03
55317;BME280;41178;48.956;8.130;2023-07-29T09:53:43;99282.88;;;21.86;55.81
55317;BME280;41178;48.956;8.130;2023-07-29T09:58:47;99245.88;;;23.07;53.40
55317;BME280;41178;48.956;8.130;2023-07-29T10:03:49;99289.69;;;22.35;54.06
55317;BME280;41178;48.956;8.130;2023-07-29T10:08:51;99268.88;;;23.40;52.69
55317;BME280;41178;48.956;8.130;2023-07-29T10:13:53;99304.94;;;22.62;52.97
55317;BME280;41178;48.956;8.130;2023-07-29T10:19:09;99300.78;;;23.45;52.14
55317;BME280;41178;48.956;8.130;2023-07-29T10:24:15;99307.06;;;22.75;51.51
55317;BME280;41178;48.956;8.130;2023-07-29T10:29:20;99254.03;;;23.57;50.68
55317;BME280;41178;48.956;8.130;2023-07-29T10:34:25;99279.13;;;23.04;51.37
55317;BME280;41178;48.956;8.130;2023-07-29T10:39:27;99270.91;;;22.39;50.92
55317;BME280;41178;48.956;8.130;2023-07-29T10:49:58;99286.19;;;22.04;51.07
55317;BME280;41178;48.956;8.130;2023-07-29T10:55:00;99237.44;;;23.43;50.07
55317;BME280;41178;48.956;8.130;2023-07-29T11:00:04;99238.75;;;23.51;49.79
55317;BME280;41178;48.956;8.130;2023-07-29T11:06:20;99194.69;;;20.57;55.36
55317;BME280;41178;48.956;8.130;2023-07-29T11:11:22;99209.69;;;20.17;54.60
55317;BME280;41178;48.956;8.130;2023-07-29T11:16:23;99196.81;;;21.29;53.37
55317;BME280;41178;48.956;8.130;2023-07-29T11:21:26;99221.00;;;21.10;52.96
55317;BME280;41178;48.956;8.130;2023-07-29T11:26:29;99200.34;;;22.11;51.63
55317;BME280;41178;48.956;8.130;2023-07-29T11:31:40;99222.19;;;21.60;52.30
55317;BME280;41178;48.956;8.130;2023-07-29T11:36:45;99219.97;;;21.83;50.91
55317;BME280;41178;48.956;8.130;2023-07-29T11:41:47;99202.00;;;22.12;51.00
55317;BME280;41178;48.956;8.130;2023-07-29T11:46:48;99268.66;;;21.33;50.40
55317;BME280;41178;48.956;8.130;2023-07-29T11:51:50;99177.59;;;23.17;48.82
55317;BME280;41178;48.956;8.130;2023-07-29T11:56:52;99237.16;;;21.88;50.15
55317;BME280;41178;48.956;8.130;2023-07-29T12:01:54;99183.25;;;23.60;48.18
55317;BME280;41178;48.956;8.130;2023-07-29T12:06:56;99211.19;;;22.52;49.48
55317;BME280;41178;48.956;8.130;2023-07-29T12:11:58;99222.72;;;22.13;48.66
55317;BME280;41178;48.956;8.130;2023-07-29T12:17:01;99198.06;;;22.60;47.69
55317;BME280;41178;48.956;8.130;2023-07-29T12:22:05;99169.84;;;23.35;47.73
55317;BME280;41178;48.956;8.130;2023-07-29T12:27:12;99191.94;;;22.83;48.51
55317;BME280;41178;48.956;8.130;2023-07-29T12:32:14;99188.81;;;23.50;46.96
55317;BME280;41178;48.956;8.130;2023-07-29T12:37:16;99174.41;;;23.00;48.08
55317;BME280;41178;48.956;8.130;2023-07-29T12:42:18;99208.28;;;22.88;47.16
55317;BME280;41178;48.956;8.130;2023-07-29T12:47:19;99204.16;;;23.41;47.40
55317;BME280;41178;48.956;8.130;2023-07-29T12:52:22;99214.00;;;22.92;48.26
55317;BME280;41178;48.956;8.130;2023-07-29T12:57:24;99177.72;;;22.92;48.20
55317;BME280;41178;48.956;8.130;2023-07-29T13:02:25;99165.78;;;23.27;47.45
55317;BME280;41178;48.956;8.130;2023-07-29T13:07:27;99171.34;;;23.12;46.50
55317;BME280;41178;48.956;8.130;2023-07-29T13:12:29;99156.91;;;23.45;46.23
55317;BME280;41178;48.956;8.130;2023-07-29T13:17:31;99111.03;;;24.01;45.69
55317;BME280;41178;48.956;8.130;2023-07-29T13:22:33;99180.41;;;22.97;46.59
55317;BME280;41178;48.956;8.130;2023-07-29T13:27:34;99166.75;;;23.07;45.62
55317;BME280;41178;48.956;8.130;2023-07-29T13:32:36;99140.38;;;23.32;46.53
55317;BME280;41178;48.956;8.130;2023-07-29T13:37:38;99135.94;;;23.06;46.19
55317;BME280;41178;48.956;8.130;2023-07-29T13:42:39;99158.22;;;23.48;45.35
55317;BME280;41178;48.956;8.130;2023-07-29T13:47:41;99140.47;;;23.80;45.01
55317;BME280;41178;48.956;8.130;2023-07-29T13:52:43;99178.84;;;22.85;45.74
55317;BME280;41178;48.956;8.130;2023-07-29T13:57:45;99160.53;;;23.36;46.10
55317;BME280;41178;48.956;8.130;2023-07-29T14:02:47;99154.81;;;23.32;45.58
55317;BME280;41178;48.956;8.130;2023-07-29T14:07:49;99095.28;;;24.41;44.10
55317;BME280;41178;48.956;8.130;2023-07-29T14:12:50;99171.09;;;23.77;45.01
55317;BME280;41178;48.956;8.130;2023-07-29T14:17:52;99123.59;;;24.02;45.19
55317;BME280;41178;48.956;8.130;2023-07-29T14:22:54;99161.09;;;23.96;45.28
55317;BME280;41178;48.956;8.130;2023-07-29T14:27:56;99130.88;;;24.36;44.80
55317;BME280;41178;48.956;8.130;2023-07-29T14:32:57;99147.66;;;23.76;45.28
55317;BME280;41178;48.956;8.130;2023-07-29T14:37:59;99147.66;;;23.76;44.59
55317;BME280;41178;48.956;8.130;2023-07-29T14:43:01;99128.88;;;24.42;43.93
55317;BME280;41178;48.956;8.130;2023-07-29T14:48:03;99160.81;;;23.98;44.32
55317;BME280;41178;48.956;8.130;2023-07-29T14:53:07;99106.59;;;24.05;43.90
55317;BME280;41178;48.956;8.130;2023-07-29T14:58:09;99160.78;;;23.74;43.80
55317;BME280;41178;48.956;8.130;2023-07-29T15:03:11;99137.59;;;23.95;43.86
55317;BME280;41178;48.956;8.130;2023-07-29T15:08:13;99102.13;;;24.82;42.73
55317;BME280;41178;48.956;8.130;2023-07-29T15:13:14;99147.66;;;23.76;43.95
55317;BME280;41178;48.956;8.130;2023-07-29T15:18:16;99100.47;;;23.70;43.47
55317;BME280;41178;48.956;8.130;2023-07-29T15:23:18;99071.06;;;24.72;42.33
55317;BME280;41178;48.956;8.130;2023-07-29T15:28:20;99120.91;;;24.45;43.79
55317;BME280;41178;48.956;8.130;2023-07-29T15:33:21;99121.72;;;24.46;45.13
55317;BME280;41178;48.956;8.130;2023-07-29T15:38:23;99040.16;;;25.05;44.67
55317;BME280;41178;48.956;8.130;2023-07-29T15:43:25;99057.16;;;24.50;45.06
55317;BME280;41178;48.956;8.130;2023-07-29T15:48:27;99041.75;;;24.35;45.52
55317;BME280;41178;48.956;8.130;2023-07-29T15:53:28;99043.31;;;25.31;44.11
55317;BME280;41178;48.956;8.130;2023-07-29T15:58:30;99038.41;;;25.28;42.95
55317;BME280;41178;48.956;8.130;2023-07-29T16:03:32;99068.56;;;25.09;43.12
55317;BME280;41178;48.956;8.130;2023-07-29T16:08:33;99074.22;;;24.80;43.37
55317;BME280;41178;48.956;8.130;2023-07-29T16:13:35;99045.38;;;24.87;43.51
55317;BME280;41178;48.956;8.130;2023-07-29T16:18:37;99046.88;;;25.13;43.43
55317;BME280;41178;48.956;8.130;2023-07-29T16:23:39;99075.75;;;25.38;43.27
55317;BME280;41178;48.956;8.130;2023-07-29T16:28:41;99073.03;;;25.38;42.82
55317;BME280;41178;48.956;8.130;2023-07-29T16:33:43;99077.06;;;25.73;41.83
55317;BME280;41178;48.956;8.130;2023-07-29T16:38:44;99096.31;;;25.02;43.10
55317;BME280;41178;48.956;8.130;2023-07-29T16:43:46;99081.03;;;25.15;42.33
55317;BME280;41178;48.956;8.130;2023-07-29T16:48:48;99078.88;;;24.79;42.81
55317;BME280;41178;48.956;8.130;2023-07-29T16:53:49;99073.47;;;24.36;43.87
55317;BME280;41178;48.956;8.130;2023-07-29T16:58:54;99068.22;;;24.78;43.46
55317;BME280;41178;48.956;8.130;2023-07-29T17:03:56;99045.66;;;25.65;41.84
55317;BME280;41178;48.956;8.130;2023-07-29T17:08:58;99041.84;;;24.87;43.34
55317;BME280;41178;48.956;8.130;2023-07-29T17:14:00;99081.88;;;25.16;42.72
55317;BME280;41178;48.956;8.130;2023-07-29T17:19:01;99100.75;;;24.79;43.17
55317;BME280;41178;48.956;8.130;2023-07-29T17:24:04;99054.38;;;25.07;43.53
55317;BME280;41178;48.956;8.130;2023-07-29T17:29:06;99107.38;;;23.57;45.08
55317;BME280;41178;48.956;8.130;2023-07-29T17:34:07;99092.44;;;24.03;44.30
55317;BME280;41178;48.956;8.130;2023-07-29T17:39:09;99047.94;;;25.91;42.56
55317;BME280;41178;48.956;8.130;2023-07-29T17:44:11;99071.22;;;25.14;43.41
55317;BME280;41178;48.956;8.130;2023-07-29T17:49:13;99069.22;;;25.80;42.85
55317;BME280;41178;48.956;8.130;2023-07-29T17:54:14;99084.91;;;25.47;43.39
55317;BME280;41178;48.956;8.130;2023-07-29T17:59:16;99105.22;;;24.75;44.42
55317;BME280;41178;48.956;8.130;2023-07-29T18:04:18;99091.66;;;23.44;47.54
55317;BME280;41178;48.956;8.130;2023-07-29T18:09:20;99096.06;;;23.05;48.92
55317;BME280;41178;48.956;8.130;2023-07-29T18:14:21;99105.63;;;23.08;49.09
55317;BME280;41178;48.956;8.130;2023-07-29T18:19:23;99070.38;;;22.72;50.42
55317;BME280;41178;48.956;8.130;2023-07-29T18:24:28;99036.66;;;23.32;50.01
55317;BME280;41178;48.956;8.130;2023-07-29T18:29:32;99055.41;;;23.04;50.66
55317;BME280;41178;48.956;8.130;2023-07-29T18:34:33;99028.69;;;23.65;50.53
55317;BME280;41178;48.956;8.130;2023-07-29T18:39:35;99088.75;;;21.81;53.56
55317;BME280;41178;48.956;8.130;2023-07-29T18:44:37;99092.16;;;22.77;52.13
55317;BME280;41178;48.956;8.130;2023-07-29T18:49:39;99075.19;;;22.85;51.77
55317;BME280;41178;48.956;8.130;2023-07-29T18:54:40;99084.25;;;22.81;52.08
55317;BME280;41178;48.956;8.130;2023-07-29T18:59:43;99112.22;;;22.97;50.89
55317;BME280;41178;48.956;8.130;2023-07-29T19:04:44;99107.47;;;22.73;51.77
55317;BME280;41178;48.956;8.130;2023-07-29T19:09:48;99105.59;;;23.42;50.03
55317;BME280;41178;48.956;8.130;2023-07-29T19:14:50;99099.16;;;22.94;51.36
55317;BME280;41178;48.956;8.130;2023-07-29T19:19:52;99129.06;;;22.64;51.89
55317;BME280;41178;48.956;8.130;2023-07-29T19:24:53;99167.44;;;21.82;52.64
55317;BME280;41178;48.956;8.130;2023-07-29T19:29:55;99155.63;;;22.33;52.21
55317;BME280;41178;48.956;8.130;2023-07-29T19:34:57;99151.50;;;22.51;51.79
55317;BME280;41178;48.956;8.130;2023-07-29T19:39:59;99193.97;;;22.62;51.07
55317;BME280;41178;48.956;8.130;2023-07-29T19:45:00;99175.81;;;22.22;52.32
55317;BME280;41178;48.956;8.130;2023-07-29T19:50:02;99169.13;;;22.69;52.20
55317;BME280;41178;48.956;8.130;2023-07-29T19:55:04;99176.41;;;21.93;53.72
55317;BME280;41178;48.956;8.130;2023-07-29T20:00:06;99175.13;;;22.71;52.41
55317;BME280;41178;48.956;8.130;2023-07-29T20:05:09;99173.59;;;22.34;53.61
55317;BME280;41178;48.956;8.130;2023-07-29T20:10:10;99172.97;;;22.63;52.85
55317;BME280;41178;48.956;8.130;2023-07-29T20:15:12;99202.00;;;22.93;52.26
55317;BME280;41178;48.956;8.130;2023-07-29T20:20:14;99209.41;;;22.82;52.36
55317;BME280;41178;48.956;8.130;2023-07-29T20:25:16;99195.25;;;23.30;51.72
55317;BME280;41178;48.956;8.130;2023-07-29T20:30:17;99184.47;;;22.99;52.65
55317;BME280;41178;48.956;8.130;2023-07-29T20:35:19;99218.59;;;22.21;54.00
55317;BME280;41178;48.956;8.130;2023-07-29T20:40:24;99192.69;;;22.29;54.59
55317;BME280;41178;48.956;8.130;2023-07-29T20:45:26;99222.91;;;22.38;53.73
55317;BME280;41178;48.956;8.130;2023-07-29T20:50:28;99210.34;;;22.42;53.81
55317;BME280;41178;48.956;8.130;2023-07-29T20:55:30;99205.78;;;22.16;54.70
55317;BME280;41178;48.956;8.130;2023-07-29T21:00:32;99226.94;;;22.66;53.99
55317;BME280;41178;48.956;8.130;2023-07-29T21:05:34;99256.69;;;22.47;54.57
55317;BME280;41178;48.956;8.130;2023-07-29T21:10:38;99261.41;;;22.05;56.65
55317;BME280;41178;48.956;8.130;2023-07-29T21:15:40;99245.56;;;22.28;56.76
55317;BME280;41178;48.956;8.130;2023-07-29T21:20:42;99250.47;;;21.54;58.30
55317;BME280;41178;48.956;8.130;2023-07-29T21:25:48;99252.13;;;21.60;58.13
55317;BME280;41178;48.956;8.130;2023-07-29T21:30:49;99263.47;;;21.31;58.84
55317;BME280;41178;48.956;8.130;2023-07-29T21:35:52;99284.25;;;21.73;57.02
55317;BME280;41178;48.956;8.130;2023-07-29T21:40:53;99307.91;;;21.57;57.84
55317;BME280;41178;48.956;8.130;2023-07-29T21:45:55;99272.25;;;22.41;56.94
55317;BME280;41178;48.956;8.130;2023-07-29T21:50:57;99258.56;;;22.62;56.23
55317;BME280;41178;48.956;8.130;2023-07-29T21:56:00;99302.56;;;20.99;59.16
55317;BME280;41178;48.956;8.130;2023-07-29T22:01:03;99272.03;;;22.02;56.52
55317;BME280;41178;48.956;8.130;2023-07-29T22:06:05;99282.66;;;22.08;56.50
55317;BME280;41178;48.956;8.130;2023-07-29T22:11:08;99274.09;;;22.71;55.22
55317;BME280;41178;48.956;8.130;2023-07-29T22:16:13;99286.16;;;24.05;51.91
55317;BME280;41178;48.956;8.130;2023-07-29T22:21:15;99358.94;;;22.60;54.07
55317;BME280;41178;48.956;8.130;2023-07-29T22:26:17;99351.81;;;22.59;54.49
55317;BME280;41178;48.956;8.130;2023-07-29T22:31:19;99302.50;;;23.31;53.29
55317;BME280;41178;48.956;8.130;2023-07-29T22:36:21;99336.13;;;23.16;53.13
55317;BME280;41178;48.956;8.130;2023-07-29T22:41:23;99322.25;;;23.67;52.48
55317;BME280;41178;48.956;8.130;2023-07-29T22:46:24;99359.44;;;21.85;55.78
55317;BME280;41178;48.956;8.130;2023-07-29T22:51:26;99351.53;;;21.88;55.40
55317;BME280;41178;48.956;8.130;2023-07-29T22:56:28;99359.44;;;21.90;54.94
55317;BME280;41178;48.956;8.130;2023-07-29T23:01:30;99368.19;;;21.97;54.67
55317;BME280;41178;48.956;8.130;2023-07-29T23:06:31;99343.63;;;21.76;55.38
55317;BME280;41178;48.956;8.130;2023-07-29T23:11:33;99332.66;;;20.82;57.35
55317;BME280;41178;48.956;8.130;2023-07-29T23:16:35;99342.41;;;21.31;55.22
55317;BME280;41178;48.956;8.130;2023-07-29T23:21:37;99337.81;;;21.37;54.87
55317;BME280;41178;48.956;8.130;2023-07-29T23:26:39;99332.16;;;21.69;53.88
55317;BME280;41178;48.956;8.130;2023-07-29T23:31:41;99306.06;;;22.04;53.10
55317;BME280;41178;48.956;8.130;2023-07-29T23:36:43;99310.81;;;21.25;55.11
55317;BME280;41178;48.956;8.130;2023-07-29T23:41:44;99321.31;;;20.96;55.13
55317;BME280;41178;48.956;8.130;2023-07-29T23:46:46;99339.59;;;21.05;55.04
55317;BME280;41178;48.956;8.130;2023-07-29T23:51:48;99349.88;;;20.56;56.31
55317;BME280;41178;48.956;8.130;2023-07-29T23:56:49;99338.50;;;21.12;54.75
